Center Rutland, Vermont
Current Conditions -  °F | °C
As of 10:35 AM on Thursday 18 Dec 2014 (Local Time) from KRUT Reporting Station
Overcast Overcast  
Wind Chill: 26°   Ceiling: 2500
Heat Index: 34°   Visibility: 10mi
Dew Point: 27°   Wind: 10mph
Humidity: 75%   Direction: 280°W
Pressure: 29.83"   Gusts: 17mph
Location:  43.6°N, 73.01°W
Report Text: KRUT 181535Z 28009G15KT 10SM OVC025 01/M03 A2983 RMK AO1
Loading
Personal Weather Stations






























Interactive Weather Map New forecast layout! Learn more

10-Day Weather Forecast

Advertisements
Track Severe Weather on mobile